Terminal Aerodrome Forecast
Issued by NWS

Home | Current Version | Previous Version | Text Only | Print | Product List | Glossary On
Versions: 1 2 3 4 5 6 7 8 9 10 11 12 13 14 15 16 17 18
199
FTUS41 KCAR 221822 CCA
TAFBHB
TAF COR
KBHB 221822Z 2218/2318 20008KT P6SM SCT250
     FM221900 20008KT P6SM BKN005
     FM230200 21010KT 3SM BR OVC008 WS020/22040KT
     FM230900 21010KT 2SM -SHRA BR OVC004
     FM231200 21012KT 1SM BR OVC003
     FM231500 22012G18KT P6SM OVC008=

USA.gov is the U.S. government's official web portal to all federal, state and local government web resources and services.